Time,TemperatureF,DewpointF,PressureIn,WindDirection,WindDirectionDegrees,WindSpeedMPH,WindSpeedGustMPH,Humidity,HourlyPrecipIn,Conditions,Clouds,dailyrainin,SoftwareType,DateUTC
2013-08-07 00:01:00,69.2,67.4,30.11,SSE,161,0.0,0.0,94,0.00,,---,0.00,VWS V14.01,2013-08-07 04:01:00,
2013-08-07 00:02:00,69.2,67.4,30.11,SSE,161,0.0,0.0,94,0.00,,---,0.00,VWS V14.01,2013-08-07 04:02:00,
2013-08-07 00:03:00,69.2,67.4,30.11,SSE,161,0.0,0.0,94,0.00,,---,0.00,VWS V14.01,2013-08-07 04:03:00,
2013-08-07 00:08:00,69.4,67.9,30.10,SSE,161,0.0,0.0,95,0.00,,---,0.00,VWS V14.01,2013-08-07 04:08:00,
2013-08-07 00:13:00,69.4,67.9,30.10,SSE,161,0.0,0.0,95,0.00,,---,0.00,VWS V14.01,2013-08-07 04:13:00,
2013-08-07 00:19:00,69.5,68.0,30.10,SSE,161,0.0,0.0,95,0.00,,---,0.00,VWS V14.01,2013-08-07 04:19:00,
2013-08-07 00:24:00,69.7,68.2,30.10,SSE,161,0.0,0.0,95,0.00,,---,0.00,VWS V14.01,2013-08-07 04:24:00,
2013-08-07 00:29:00,69.8,68.3,30.10,SSE,161,0.0,0.0,95,0.00,,---,0.00,VWS V14.01,2013-08-07 04:29:00,
2013-08-07 00:34:00,69.9,68.1,30.10,SSE,161,0.0,0.0,94,0.00,,---,0.00,VWS V14.01,2013-08-07 04:34:00,
2013-08-07 00:39:00,69.8,68.0,30.10,SSE,161,0.0,0.0,94,0.00,,---,0.00,VWS V14.01,2013-08-07 04:39:00,
2013-08-07 00:44:00,69.8,68.0,30.09,SSE,161,0.0,0.0,94,0.00,,---,0.00,VWS V14.01,2013-08-07 04:44:00,
2013-08-07 00:49:00,69.7,67.9,30.09,SSE,161,0.0,0.0,94,0.00,,---,0.00,VWS V14.01,2013-08-07 04:49:00,
2013-08-07 00:54:00,69.6,67.8,30.09,SSE,161,0.0,0.0,94,0.00,,---,0.00,VWS V14.01,2013-08-07 04:54:00,
2013-08-07 00:59:00,69.6,68.1,30.09,SSE,161,0.0,0.0,95,0.00,,---,0.00,VWS V14.01,2013-08-07 04:59:00,
2013-08-07 01:05:00,69.5,68.0,30.09,SSE,161,0.0,0.0,95,0.00,,---,0.00,VWS V14.01,2013-08-07 05:05:00,
2013-08-07 01:10:00,69.4,67.9,30.09,SSE,161,0.0,0.0,95,0.00,,---,0.00,VWS V14.01,2013-08-07 05:10:00,
2013-08-07 01:15:00,69.4,67.9,30.09,SSE,161,0.0,0.0,95,0.00,,---,0.00,VWS V14.01,2013-08-07 05:15:00,
2013-08-07 01:20:00,69.5,68.0,30.09,SSE,161,0.0,0.0,95,0.00,,---,0.00,VWS V14.01,2013-08-07 05:20:00,
2013-08-07 01:25:00,69.5,68.0,30.09,SSE,161,0.0,0.0,95,0.00,,---,0.00,VWS V14.01,2013-08-07 05:25:00,
2013-08-07 01:30:00,69.5,68.0,30.09,SSE,161,0.0,0.0,95,0.00,,---,0.00,VWS V14.01,2013-08-07 05:30:00,
2013-08-07 01:35:00,69.6,68.1,30.09,SSE,161,0.0,0.0,95,0.00,,---,0.00,VWS V14.01,2013-08-07 05:35:00,
2013-08-07 01:40:00,69.6,68.1,30.09,SSE,161,0.0,0.0,95,0.00,,---,0.00,VWS V14.01,2013-08-07 05:40:00,
2013-08-07 01:45:00,69.7,68.2,30.09,SSE,161,0.0,0.0,95,0.00,,---,0.00,VWS V14.01,2013-08-07 05:45:00,
2013-08-07 01:50:00,69.7,68.2,30.09,SSE,161,0.0,0.0,95,0.00,,---,0.00,VWS V14.01,2013-08-07 05:50:00,
2013-08-07 01:56:00,69.7,68.2,30.09,SSE,161,0.0,0.0,95,0.00,,---,0.00,VWS V14.01,2013-08-07 05:56:00,
2013-08-07 02:01:00,69.9,68.4,30.09,SSE,161,0.0,0.0,95,0.00,,---,0.00,VWS V14.01,2013-08-07 06:01:00,
2013-08-07 02:06:00,70.0,68.5,30.09,SSE,161,0.0,0.0,95,0.00,,---,0.00,VWS V14.01,2013-08-07 06:06:00,
2013-08-07 02:11:00,70.0,68.5,30.09,SSE,161,0.0,0.0,95,0.00,,---,0.00,VWS V14.01,2013-08-07 06:11:00,
2013-08-07 02:16:00,70.2,68.7,30.09,SSE,161,0.0,0.0,95,0.00,,---,0.00,VWS V14.01,2013-08-07 06:16:00,
2013-08-07 02:21:00,70.3,68.8,30.09,SSE,161,0.0,0.0,95,0.00,,---,0.00,VWS V14.01,2013-08-07 06:21:00,
2013-08-07 02:26:00,70.4,68.9,30.09,SSE,161,0.0,0.0,95,0.00,,---,0.00,VWS V14.01,2013-08-07 06:26:00,
2013-08-07 02:31:00,70.4,68.9,30.09,SSE,161,0.0,0.0,95,0.00,,---,0.00,VWS V14.01,2013-08-07 06:31:00,
2013-08-07 02:36:00,70.4,68.9,30.09,SSE,161,0.0,0.0,95,0.00,,---,0.00,VWS V14.01,2013-08-07 06:36:00,
2013-08-07 02:41:00,70.5,69.0,30.08,SSE,161,0.0,0.0,95,0.00,,---,0.00,VWS V14.01,2013-08-07 06:41:00,
2013-08-07 02:47:00,70.5,69.0,30.08,SSE,161,0.0,0.0,95,0.00,,---,0.00,VWS V14.01,2013-08-07 06:47:00,
2013-08-07 02:52:00,70.5,69.0,30.08,SSE,161,0.0,0.0,95,0.00,,---,0.00,VWS V14.01,2013-08-07 06:52:00,
2013-08-07 02:57:00,70.5,69.0,30.08,SSE,161,0.0,0.0,95,0.00,,---,0.00,VWS V14.01,2013-08-07 06:57:00,
2013-08-07 03:02:00,70.3,68.8,30.08,SSE,161,0.0,0.0,95,0.00,,---,0.00,VWS V14.01,2013-08-07 07:02:00,
2013-08-07 03:07:00,70.2,68.7,30.09,SSE,161,0.0,0.0,95,0.00,,---,0.00,VWS V14.01,2013-08-07 07:07:00,
2013-08-07 03:12:00,70.2,68.7,30.09,SSE,161,0.0,0.0,95,0.00,,---,0.00,VWS V14.01,2013-08-07 07:12:00,
2013-08-07 03:17:00,70.1,68.6,30.09,SSE,161,0.0,0.0,95,0.00,,---,0.00,VWS V14.01,2013-08-07 07:17:00,
2013-08-07 03:22:00,70.2,68.7,30.09,SSE,161,0.0,0.0,95,0.00,,---,0.00,VWS V14.01,2013-08-07 07:22:00,
2013-08-07 03:27:00,70.2,68.7,30.09,SSE,161,0.0,0.0,95,0.00,,---,0.00,VWS V14.01,2013-08-07 07:27:00,
2013-08-07 03:32:00,70.2,68.7,30.08,SSE,161,0.0,0.0,95,0.00,,---,0.00,VWS V14.01,2013-08-07 07:32:00,
2013-08-07 03:38:00,70.2,68.7,30.08,SSE,161,0.0,0.0,95,0.00,,---,0.00,VWS V14.01,2013-08-07 07:38:00,
2013-08-07 03:43:00,70.2,68.7,30.09,SSE,161,0.0,0.0,95,0.00,,---,0.00,VWS V14.01,2013-08-07 07:43:00,
2013-08-07 03:48:00,70.2,68.7,30.09,SSE,161,0.0,0.0,95,0.00,,---,0.00,VWS V14.01,2013-08-07 07:48:00,
2013-08-07 03:53:00,70.1,68.6,30.09,SSE,161,0.0,0.0,95,0.00,,---,0.00,VWS V14.01,2013-08-07 07:53:00,
2013-08-07 03:58:00,70.1,68.6,30.09,SSE,161,0.0,0.0,95,0.00,,---,0.00,VWS V14.01,2013-08-07 07:58:00,
2013-08-07 04:03:00,70.1,68.6,30.09,SSE,161,0.0,0.0,95,0.00,,---,0.00,VWS V14.01,2013-08-07 08:03:00,
2013-08-07 04:08:00,70.2,68.7,30.09,SSE,161,0.0,0.0,95,0.00,,---,0.00,VWS V14.01,2013-08-07 08:08:00,
2013-08-07 04:13:00,70.2,69.0,30.09,SSE,161,0.0,0.0,96,0.00,,---,0.00,VWS V14.01,2013-08-07 08:13:00,
2013-08-07 04:18:00,70.2,69.0,30.09,SSE,161,0.0,0.0,96,0.00,,---,0.00,VWS V14.01,2013-08-07 08:18:00,
2013-08-07 04:23:00,70.2,69.0,30.09,SSE,161,0.0,0.0,96,0.00,,---,0.00,VWS V14.01,2013-08-07 08:23:00,
2013-08-07 04:29:00,70.2,69.0,30.09,SSE,161,0.0,0.0,96,0.00,,---,0.00,VWS V14.01,2013-08-07 08:29:00,
2013-08-07 04:34:00,70.2,69.0,30.09,SSE,161,0.0,0.0,96,0.00,,---,0.00,VWS V14.01,2013-08-07 08:34:00,
2013-08-07 04:39:00,70.2,69.0,30.09,SSE,161,0.0,0.0,96,0.00,,---,0.00,VWS V14.01,2013-08-07 08:39:00,
2013-08-07 04:44:00,70.2,69.0,30.09,SSE,161,0.0,0.0,96,0.00,,---,0.00,VWS V14.01,2013-08-07 08:44:00,
2013-08-07 04:49:00,70.2,69.0,30.09,SSE,161,0.0,0.0,96,0.00,,---,0.00,VWS V14.01,2013-08-07 08:49:00,
2013-08-07 04:54:00,70.2,69.0,30.09,SSE,161,0.0,0.0,96,0.00,,---,0.00,VWS V14.01,2013-08-07 08:54:00,
2013-08-07 04:59:00,70.2,69.0,30.09,SSE,161,0.0,0.0,96,0.00,,---,0.00,VWS V14.01,2013-08-07 08:59:00,
2013-08-07 05:04:00,70.2,69.0,30.09,SSE,161,0.0,0.0,96,0.00,,---,0.00,VWS V14.01,2013-08-07 09:04:00,
2013-08-07 05:09:00,70.3,69.1,30.09,SSE,161,0.0,0.0,96,0.00,,---,0.00,VWS V14.01,2013-08-07 09:09:00,
2013-08-07 05:14:00,70.3,69.1,30.09,SSE,161,0.0,0.0,96,0.00,,---,0.00,VWS V14.01,2013-08-07 09:14:00,
2013-08-07 05:19:00,70.3,69.1,30.09,SSE,161,0.0,0.0,96,0.00,,---,0.00,VWS V14.01,2013-08-07 09:19:00,
2013-08-07 05:25:00,70.3,69.1,30.09,SSE,161,0.0,0.0,96,0.00,,---,0.00,VWS V14.01,2013-08-07 09:25:00,
2013-08-07 05:30:00,70.2,69.0,30.09,SSE,161,0.0,0.0,96,0.00,,---,0.00,VWS V14.01,2013-08-07 09:30:00,
2013-08-07 05:35:00,70.2,68.7,30.09,SSE,161,0.0,0.0,95,0.00,,---,0.00,VWS V14.01,2013-08-07 09:35:00,
2013-08-07 05:40:00,70.2,69.0,30.10,SSE,161,0.0,0.0,96,0.00,,---,0.00,VWS V14.01,2013-08-07 09:40:00,
2013-08-07 05:45:00,70.2,69.0,30.09,SSE,161,0.0,0.0,96,0.00,,---,0.00,VWS V14.01,2013-08-07 09:45:00,
2013-08-07 05:50:00,70.2,69.0,30.09,SSE,161,0.0,0.0,96,0.00,,---,0.00,VWS V14.01,2013-08-07 09:50:00,
2013-08-07 05:55:00,70.2,68.7,30.10,SSE,161,0.0,0.0,95,0.00,,---,0.00,VWS V14.01,2013-08-07 09:55:00,
2013-08-07 06:00:00,70.3,69.1,30.10,SSE,161,0.0,0.0,96,0.00,,---,0.00,VWS V14.01,2013-08-07 10:00:00,
2013-08-07 06:05:00,70.3,68.8,30.10,SSE,161,0.0,0.0,95,0.00,,---,0.00,VWS V14.01,2013-08-07 10:05:00,
2013-08-07 06:10:00,70.3,68.8,30.10,SSE,161,0.0,0.0,95,0.00,,---,0.00,VWS V14.01,2013-08-07 10:10:00,
2013-08-07 06:16:00,70.3,69.1,30.11,SSE,161,0.0,0.0,96,0.00,,---,0.00,VWS V14.01,2013-08-07 10:16:00,
2013-08-07 06:21:00,70.3,69.1,30.11,SSE,161,0.0,0.0,96,0.00,,---,0.00,VWS V14.01,2013-08-07 10:21:00,
2013-08-07 06:26:00,70.4,69.2,30.11,SSE,161,0.0,0.0,96,0.00,,---,0.00,VWS V14.01,2013-08-07 10:26:00,
2013-08-07 06:31:00,70.3,69.1,30.11,SSE,161,0.0,0.0,96,0.00,,---,0.00,VWS V14.01,2013-08-07 10:31:00,
2013-08-07 06:36:00,70.3,69.1,30.11,SSE,161,0.0,0.0,96,0.00,,---,0.00,VWS V14.01,2013-08-07 10:36:00,
2013-08-07 06:41:00,70.3,68.8,30.11,SSE,161,0.0,0.0,95,0.00,,---,0.00,VWS V14.01,2013-08-07 10:41:00,
2013-08-07 06:46:00,70.3,68.8,30.11,SSE,161,0.0,0.0,95,0.00,,---,0.00,VWS V14.01,2013-08-07 10:46:00,
2013-08-07 06:51:00,70.3,68.8,30.11,SSE,161,0.0,0.0,95,0.00,,---,0.00,VWS V14.01,2013-08-07 10:51:00,
2013-08-07 06:56:00,70.4,68.9,30.11,SSE,161,0.0,0.0,95,0.00,,---,0.00,VWS V14.01,2013-08-07 10:56:00,
2013-08-07 07:01:00,70.4,68.9,30.11,SSE,161,0.0,0.0,95,0.00,,---,0.00,VWS V14.01,2013-08-07 11:01:00,
2013-08-07 07:07:00,70.5,69.0,30.11,SSE,161,0.0,0.0,95,0.00,,---,0.00,VWS V14.01,2013-08-07 11:07:00,
2013-08-07 07:12:00,70.5,69.0,30.11,SSE,161,0.0,0.0,95,0.00,,---,0.00,VWS V14.01,2013-08-07 11:12:00,
2013-08-07 07:17:00,70.5,69.0,30.11,SSE,162,0.0,0.0,95,0.00,,---,0.00,VWS V14.01,2013-08-07 11:17:00,
2013-08-07 07:22:00,70.5,69.0,30.11,SSE,162,0.0,0.0,95,0.00,,---,0.00,VWS V14.01,2013-08-07 11:22:00,
2013-08-07 07:27:00,70.5,69.0,30.11,SSE,164,0.0,0.0,95,0.00,,---,0.00,VWS V14.01,2013-08-07 11:27:00,
2013-08-07 07:32:00,70.6,69.1,30.11,SSE,165,0.0,0.0,95,0.00,,---,0.00,VWS V14.01,2013-08-07 11:32:00,
2013-08-07 07:37:00,70.8,69.0,30.11,SSE,161,0.0,1.0,94,0.00,,---,0.00,VWS V14.01,2013-08-07 11:37:00,
2013-08-07 07:42:00,71.0,69.2,30.11,SSE,164,0.0,1.0,94,0.00,,---,0.00,VWS V14.01,2013-08-07 11:42:00,
2013-08-07 07:47:00,71.2,69.4,30.12,SSE,162,0.0,0.0,94,0.00,,---,0.00,VWS V14.01,2013-08-07 11:47:00,
2013-08-07 07:53:00,71.4,69.3,30.12,SSE,162,0.0,0.0,93,0.00,,---,0.00,VWS V14.01,2013-08-07 11:53:00,
2013-08-07 07:58:00,71.5,69.4,30.12,SSE,167,0.0,0.0,93,0.00,,---,0.00,VWS V14.01,2013-08-07 11:58:00,
2013-08-07 08:03:00,71.6,69.2,30.12,SSE,153,0.0,0.0,92,0.00,,---,0.00,VWS V14.01,2013-08-07 12:03:00,
2013-08-07 08:08:00,71.7,68.9,30.12,SSW,203,0.0,1.0,91,0.00,,---,0.00,VWS V14.01,2013-08-07 12:08:00,
2013-08-07 08:13:00,71.9,69.1,30.12,SSE,163,0.0,1.0,91,0.00,,---,0.00,VWS V14.01,2013-08-07 12:13:00,
2013-08-07 08:18:00,72.0,69.2,30.12,SSE,164,0.0,1.0,91,0.00,,---,0.00,VWS V14.01,2013-08-07 12:18:00,
2013-08-07 08:23:00,72.1,69.3,30.12,SSW,204,0.0,1.0,91,0.00,,---,0.00,VWS V14.01,2013-08-07 12:23:00,
2013-08-07 08:28:00,72.2,69.1,30.12,South,181,0.0,1.0,90,0.00,,---,0.00,VWS V14.01,2013-08-07 12:28:00,
2013-08-07 08:33:00,72.3,69.2,30.12,SSE,155,0.0,0.0,90,0.00,,---,0.00,VWS V14.01,2013-08-07 12:33:00,
2013-08-07 08:38:00,72.4,69.3,30.13,SSE,154,0.0,1.0,90,0.00,,---,0.00,VWS V14.01,2013-08-07 12:38:00,
2013-08-07 08:44:00,72.5,69.4,30.13,SSE,160,0.0,1.0,90,0.00,,---,0.00,VWS V14.01,2013-08-07 12:44:00,
2013-08-07 08:49:00,72.5,69.4,30.13,SSE,159,0.0,0.0,90,0.00,,---,0.00,VWS V14.01,2013-08-07 12:49:00,
2013-08-07 08:54:00,72.6,69.5,30.13,SSW,207,0.0,1.0,90,0.00,,---,0.00,VWS V14.01,2013-08-07 12:54:00,
2013-08-07 08:59:00,72.7,69.3,30.13,South,172,0.0,1.0,89,0.00,,---,0.00,VWS V14.01,2013-08-07 12:59:00,
2013-08-07 09:04:00,72.8,69.4,30.13,South,173,0.0,0.0,89,0.00,,---,0.00,VWS V14.01,2013-08-07 13:04:00,
2013-08-07 09:09:00,72.9,69.5,30.13,South,173,0.0,0.0,89,0.00,,---,0.00,VWS V14.01,2013-08-07 13:09:00,
2013-08-07 09:14:00,73.1,69.7,30.13,South,172,0.0,0.0,89,0.00,,---,0.00,VWS V14.01,2013-08-07 13:14:00,
2013-08-07 09:19:00,73.4,70.0,30.13,South,170,0.0,0.0,89,0.00,,---,0.00,VWS V14.01,2013-08-07 13:19:00,
2013-08-07 09:24:00,73.8,70.0,30.13,SSW,198,0.0,0.0,88,0.00,,---,0.00,VWS V14.01,2013-08-07 13:24:00,
2013-08-07 09:29:00,74.2,70.4,30.13,South,186,3.0,3.0,88,0.00,,---,0.00,VWS V14.01,2013-08-07 13:29:00,
2013-08-07 09:35:00,74.2,70.1,30.12,SSE,165,0.0,6.0,87,0.00,,---,0.00,VWS V14.01,2013-08-07 13:35:00,
2013-08-07 09:40:00,74.5,70.4,30.13,South,172,0.0,6.0,87,0.00,,---,0.00,VWS V14.01,2013-08-07 13:40:00,
2013-08-07 09:45:00,74.7,70.2,30.13,SE,134,0.0,6.0,86,0.00,,---,0.00,VWS V14.01,2013-08-07 13:45:00,
2013-08-07 09:50:00,74.8,70.3,30.13,South,170,0.0,1.0,86,0.00,,---,0.00,VWS V14.01,2013-08-07 13:50:00,
2013-08-07 09:55:00,74.9,70.4,30.13,SSE,165,3.0,5.0,86,0.00,,---,0.00,VWS V14.01,2013-08-07 13:55:00,
2013-08-07 10:00:00,74.9,70.1,30.13,South,169,1.0,5.0,85,0.00,,---,0.00,VWS V14.01,2013-08-07 14:00:00,
2013-08-07 10:05:00,75.0,70.5,30.13,SSW,197,2.0,5.0,86,0.00,,---,0.00,VWS V14.01,2013-08-07 14:05:00,
2013-08-07 10:10:00,75.0,70.2,30.13,SE,139,1.0,6.0,85,0.00,,---,0.00,VWS V14.01,2013-08-07 14:10:00,
2013-08-07 10:15:00,75.1,70.3,30.13,SSE,168,2.0,2.0,85,0.00,,---,0.00,VWS V14.01,2013-08-07 14:15:00,
2013-08-07 10:20:00,75.5,70.7,30.13,SSE,167,4.0,5.0,85,0.00,,---,0.00,VWS V14.01,2013-08-07 14:20:00,
2013-08-07 10:26:00,76.1,71.3,30.13,SE,131,4.0,6.0,85,0.00,,---,0.00,VWS V14.01,2013-08-07 14:26:00,
2013-08-07 10:31:00,76.5,71.3,30.13,South,190,4.0,5.0,84,0.00,,---,0.00,VWS V14.01,2013-08-07 14:31:00,
2013-08-07 10:36:00,76.4,70.9,30.13,SSW,198,4.0,6.0,83,0.00,,---,0.00,VWS V14.01,2013-08-07 14:36:00,
2013-08-07 10:41:00,76.6,71.1,30.14,WSW,244,1.0,6.0,83,0.00,,---,0.00,VWS V14.01,2013-08-07 14:41:00,
2013-08-07 10:46:00,76.6,70.7,30.14,SSE,161,0.0,4.0,82,0.00,,---,0.00,VWS V14.01,2013-08-07 14:46:00,
2013-08-07 10:51:00,76.7,71.2,30.14,South,189,1.0,7.0,83,0.00,,---,0.00,VWS V14.01,2013-08-07 14:51:00,
2013-08-07 10:56:00,76.8,71.2,30.14,SSW,198,1.0,7.0,83,0.00,,---,0.00,VWS V14.01,2013-08-07 14:56:00,
2013-08-07 11:01:00,76.7,70.8,30.14,SSE,160,0.0,5.0,82,0.00,,---,0.00,VWS V14.01,2013-08-07 15:01:00,
2013-08-07 11:06:00,76.9,71.3,30.14,South,184,1.0,5.0,83,0.00,,---,0.00,VWS V14.01,2013-08-07 15:06:00,
2013-08-07 11:11:00,77.0,71.1,30.15,South,177,2.0,5.0,82,0.00,,---,0.00,VWS V14.01,2013-08-07 15:11:00,
2013-08-07 11:17:00,77.2,70.9,30.15,SSE,161,1.0,4.0,81,0.00,,---,0.00,VWS V14.01,2013-08-07 15:17:00,
2013-08-07 11:22:00,77.4,71.5,30.15,South,182,2.0,4.0,82,0.00,,---,0.00,VWS V14.01,2013-08-07 15:22:00,
2013-08-07 11:27:00,77.7,72.1,30.14,South,169,2.0,4.0,83,0.00,,---,0.00,VWS V14.01,2013-08-07 15:27:00,
2013-08-07 11:32:00,77.8,71.5,30.14,SSE,159,1.0,4.0,81,0.00,,---,0.00,VWS V14.01,2013-08-07 15:32:00,
2013-08-07 11:37:00,78.1,72.2,30.14,South,170,2.0,6.0,82,0.00,,---,0.00,VWS V14.01,2013-08-07 15:37:00,
2013-08-07 11:42:00,78.2,71.5,30.14,SSE,165,3.0,6.0,80,0.00,,---,0.00,VWS V14.01,2013-08-07 15:42:00,
2013-08-07 11:47:00,78.2,71.2,30.14,WSW,237,1.0,4.0,79,0.00,,---,0.00,VWS V14.01,2013-08-07 15:47:00,
2013-08-07 11:52:00,78.7,72.0,30.14,SW,216,2.0,6.0,80,0.00,,---,0.00,VWS V14.01,2013-08-07 15:52:00,
2013-08-07 11:57:00,79.4,72.3,30.14,SSW,207,2.0,7.0,79,0.00,,---,0.00,VWS V14.01,2013-08-07 15:57:00,
2013-08-07 12:02:00,79.8,72.3,30.14,SE,136,3.0,5.0,78,0.00,,---,0.00,VWS V14.01,2013-08-07 16:02:00,
2013-08-07 12:08:00,79.5,72.8,30.14,South,169,2.0,6.0,80,0.00,,---,0.00,VWS V14.01,2013-08-07 16:08:00,
2013-08-07 12:13:00,79.8,72.7,30.14,South,178,2.0,6.0,79,0.00,,---,0.00,VWS V14.01,2013-08-07 16:13:00,
2013-08-07 12:18:00,79.5,72.4,30.14,SSW,200,6.0,6.0,79,0.00,,---,0.00,VWS V14.01,2013-08-07 16:18:00,
2013-08-07 12:23:00,79.6,72.9,30.13,South,169,2.0,6.0,80,0.00,,---,0.00,VWS V14.01,2013-08-07 16:23:00,
2013-08-07 12:28:00,80.4,72.9,30.13,SE,146,4.0,6.0,78,0.00,,---,0.00,VWS V14.01,2013-08-07 16:28:00,
2013-08-07 12:33:00,80.7,72.4,30.13,SSE,158,6.0,6.0,76,0.00,,---,0.00,VWS V14.01,2013-08-07 16:33:00,
2013-08-07 12:38:00,80.6,71.9,30.13,South,175,3.0,6.0,75,0.00,,---,0.00,VWS V14.01,2013-08-07 16:38:00,
2013-08-07 12:43:00,80.5,72.2,30.13,SE,124,3.0,6.0,76,0.00,,---,0.00,VWS V14.01,2013-08-07 16:43:00,
2013-08-07 12:48:00,80.8,71.7,30.13,South,178,2.0,6.0,74,0.00,,---,0.00,VWS V14.01,2013-08-07 16:48:00,
2013-08-07 12:53:00,81.2,71.3,30.13,SW,223,1.0,7.0,72,0.00,,---,0.00,VWS V14.01,2013-08-07 16:53:00,
2013-08-07 12:59:00,81.4,72.3,30.13,SSE,161,3.0,7.0,74,0.00,,---,0.00,VWS V14.01,2013-08-07 16:59:00,
2013-08-07 13:04:00,81.1,72.0,30.13,South,187,3.0,6.0,74,0.00,,---,0.00,VWS V14.01,2013-08-07 17:04:00,
2013-08-07 13:09:00,81.5,72.0,30.13,SE,143,0.0,7.0,73,0.00,,---,0.00,VWS V14.01,2013-08-07 17:09:00,
2013-08-07 13:14:00,81.3,71.0,30.13,SE,146,5.0,7.0,71,0.00,,---,0.00,VWS V14.01,2013-08-07 17:14:00,
2013-08-07 13:19:00,81.6,70.4,30.13,South,187,2.0,5.0,69,0.00,,---,0.00,VWS V14.01,2013-08-07 17:19:00,
2013-08-07 13:24:00,82.3,72.0,30.13,South,173,2.0,8.0,71,0.00,,---,0.00,VWS V14.01,2013-08-07 17:24:00,
2013-08-07 13:29:00,82.5,70.4,30.13,SE,140,1.0,8.0,67,0.00,,---,0.00,VWS V14.01,2013-08-07 17:29:00,
2013-08-07 13:34:00,82.9,69.9,30.12,SW,232,1.0,5.0,65,0.00,,---,0.00,VWS V14.01,2013-08-07 17:34:00,
2013-08-07 13:39:00,83.0,73.1,30.12,South,172,6.0,8.0,72,0.00,,---,0.00,VWS V14.01,2013-08-07 17:39:00,
2013-08-07 13:44:00,83.1,71.4,30.12,SE,140,1.0,8.0,68,0.00,,---,0.00,VWS V14.01,2013-08-07 17:44:00,
2013-08-07 13:50:00,83.4,71.7,30.12,South,182,2.0,6.0,68,0.00,,---,0.00,VWS V14.01,2013-08-07 17:50:00,
2013-08-07 13:55:00,83.2,71.1,30.11,SSW,202,4.0,7.0,67,0.00,,---,0.00,VWS V14.01,2013-08-07 17:55:00,
2013-08-07 14:00:00,83.0,71.4,30.11,SSW,192,3.0,7.0,68,0.00,,---,0.00,VWS V14.01,2013-08-07 18:00:00,
2013-08-07 14:05:00,82.8,72.9,30.11,SSE,165,2.0,5.0,72,0.00,,---,0.00,VWS V14.01,2013-08-07 18:05:00,
2013-08-07 14:10:00,82.8,69.8,30.11,South,185,3.0,8.0,65,0.00,,---,0.00,VWS V14.01,2013-08-07 18:10:00,
2013-08-07 14:15:00,83.0,71.4,30.11,SSE,147,3.0,8.0,68,0.00,,---,0.00,VWS V14.01,2013-08-07 18:15:00,
2013-08-07 14:20:00,83.1,71.4,30.11,SSE,162,1.0,9.0,68,0.00,,---,0.00,VWS V14.01,2013-08-07 18:20:00,
2013-08-07 14:25:00,83.5,71.4,30.11,South,171,1.0,9.0,67,0.00,,---,0.00,VWS V14.01,2013-08-07 18:25:00,
2013-08-07 14:30:00,83.6,71.5,30.10,SSW,200,3.0,6.0,67,0.00,,---,0.00,VWS V14.01,2013-08-07 18:30:00,
2013-08-07 14:35:00,83.0,70.5,30.10,South,189,9.0,9.0,66,0.00,,---,0.00,VWS V14.01,2013-08-07 18:35:00,
2013-08-07 14:41:00,83.2,70.2,30.10,SE,143,6.0,9.0,65,0.00,,---,0.00,VWS V14.01,2013-08-07 18:41:00,
2013-08-07 14:46:00,83.4,69.9,30.10,ESE,122,2.0,2.0,64,0.00,,---,0.00,VWS V14.01,2013-08-07 18:46:00,
2013-08-07 14:51:00,83.4,69.9,30.10,South,177,6.0,7.0,64,0.00,,---,0.00,VWS V14.01,2013-08-07 18:51:00,
2013-08-07 14:56:00,83.4,70.4,30.10,SSW,212,1.0,7.0,65,0.00,,---,0.00,VWS V14.01,2013-08-07 18:56:00,
2013-08-07 15:01:00,84.2,71.2,30.10,SE,143,3.0,4.0,65,0.00,,---,0.00,VWS V14.01,2013-08-07 19:01:00,
2013-08-07 15:06:00,84.1,70.2,30.10,SSW,196,1.0,6.0,63,0.00,,---,0.00,VWS V14.01,2013-08-07 19:06:00,
2013-08-07 15:11:00,84.3,71.3,30.10,South,169,5.0,7.0,65,0.00,,---,0.00,VWS V14.01,2013-08-07 19:11:00,
2013-08-07 15:16:00,84.3,70.8,30.09,SW,229,1.0,4.0,64,0.00,,---,0.00,VWS V14.01,2013-08-07 19:16:00,
2013-08-07 15:21:00,84.2,70.7,30.09,South,190,3.0,8.0,64,0.00,,---,0.00,VWS V14.01,2013-08-07 19:21:00,
2013-08-07 15:26:00,84.3,71.7,30.09,ESE,123,3.0,8.0,66,0.00,,---,0.00,VWS V14.01,2013-08-07 19:26:00,
2013-08-07 15:32:00,83.7,69.8,30.09,South,175,1.0,7.0,63,0.00,,---,0.00,VWS V14.01,2013-08-07 19:32:00,
2013-08-07 15:37:00,82.9,69.5,30.09,South,188,2.0,8.0,64,0.00,,---,0.00,VWS V14.01,2013-08-07 19:37:00,
2013-08-07 15:42:00,82.7,69.3,30.09,South,175,5.0,8.0,64,0.00,,---,0.00,VWS V14.01,2013-08-07 19:42:00,
2013-08-07 15:47:00,82.6,70.1,30.08,SSE,163,5.0,5.0,66,0.00,,---,0.00,VWS V14.01,2013-08-07 19:47:00,
2013-08-07 15:52:00,83.0,71.4,30.08,South,176,1.0,6.0,68,0.00,,---,0.00,VWS V14.01,2013-08-07 19:52:00,
2013-08-07 15:57:00,83.4,70.4,30.08,SSW,209,4.0,7.0,65,0.00,,---,0.00,VWS V14.01,2013-08-07 19:57:00,
2013-08-07 16:02:00,83.7,70.7,30.08,SSW,204,6.0,7.0,65,0.00,,---,0.00,VWS V14.01,2013-08-07 20:02:00,
2013-08-07 16:07:00,83.4,69.9,30.08,SE,144,4.0,7.0,64,0.00,,---,0.00,VWS V14.01,2013-08-07 20:07:00,
2013-08-07 16:12:00,84.1,72.4,30.07,SSE,155,3.0,9.0,68,0.00,,---,0.00,VWS V14.01,2013-08-07 20:12:00,
2013-08-07 16:17:00,83.8,70.3,30.07,South,183,3.0,6.0,64,0.00,,---,0.00,VWS V14.01,2013-08-07 20:17:00,
2013-08-07 16:23:00,83.2,69.8,30.07,South,172,1.0,10.0,64,0.00,,---,0.00,VWS V14.01,2013-08-07 20:23:00,
2013-08-07 16:28:00,82.8,68.5,30.07,SSE,167,4.0,10.0,62,0.00,,---,0.00,VWS V14.01,2013-08-07 20:28:00,
2013-08-07 16:33:00,82.6,69.2,30.08,SSE,155,3.0,5.0,64,0.00,,---,0.00,VWS V14.01,2013-08-07 20:33:00,
2013-08-07 16:38:00,82.8,68.5,30.07,South,181,4.0,5.0,62,0.00,,---,0.00,VWS V14.01,2013-08-07 20:38:00,
2013-08-07 16:43:00,82.9,68.6,30.08,South,186,3.0,5.0,62,0.00,,---,0.00,VWS V14.01,2013-08-07 20:43:00,
2013-08-07 16:48:00,83.1,69.7,30.08,SSE,156,0.0,6.0,64,0.00,,---,0.00,VWS V14.01,2013-08-07 20:48:00,
2013-08-07 16:53:00,82.8,68.5,30.08,South,170,2.0,6.0,62,0.00,,---,0.00,VWS V14.01,2013-08-07 20:53:00,
2013-08-07 16:58:00,82.9,69.9,30.08,SW,223,1.0,6.0,65,0.00,,---,0.00,VWS V14.01,2013-08-07 20:58:00,
2013-08-07 17:03:00,82.8,68.9,30.07,South,190,2.0,4.0,63,0.00,,---,0.00,VWS V14.01,2013-08-07 21:03:00,
2013-08-07 17:09:00,82.6,69.7,30.07,South,182,1.0,5.0,65,0.00,,---,0.00,VWS V14.01,2013-08-07 21:09:00,
2013-08-07 17:14:00,82.4,69.0,30.07,SW,221,3.0,6.0,64,0.00,,---,0.00,VWS V14.01,2013-08-07 21:14:00,
2013-08-07 17:19:00,82.5,69.1,30.07,South,173,2.0,6.0,64,0.00,,---,0.00,VWS V14.01,2013-08-07 21:19:00,
2013-08-07 17:24:00,82.5,70.0,30.07,SSE,163,3.0,6.0,66,0.00,,---,0.00,VWS V14.01,2013-08-07 21:24:00,
2013-08-07 17:29:00,82.7,70.2,30.07,SSW,194,1.0,6.0,66,0.00,,---,0.00,VWS V14.01,2013-08-07 21:29:00,
2013-08-07 17:34:00,82.6,69.7,30.07,South,178,0.0,6.0,65,0.00,,---,0.00,VWS V14.01,2013-08-07 21:34:00,
2013-08-07 17:39:00,82.8,70.3,30.07,South,173,0.0,6.0,66,0.00,,---,0.00,VWS V14.01,2013-08-07 21:39:00,
2013-08-07 17:44:00,82.7,69.8,30.07,SW,223,3.0,6.0,65,0.00,,---,0.00,VWS V14.01,2013-08-07 21:44:00,
2013-08-07 17:49:00,82.9,71.3,30.07,SSW,200,0.0,4.0,68,0.00,,---,0.00,VWS V14.01,2013-08-07 21:49:00,
2013-08-07 17:54:00,83.0,70.9,30.07,ESE,122,1.0,5.0,67,0.00,,---,0.00,VWS V14.01,2013-08-07 21:54:00,
2013-08-07 18:00:00,82.9,70.8,30.07,SSE,160,2.0,5.0,67,0.00,,---,0.00,VWS V14.01,2013-08-07 22:00:00,
2013-08-07 18:05:00,82.9,70.4,30.07,SSW,210,1.0,3.0,66,0.00,,---,0.00,VWS V14.01,2013-08-07 22:05:00,
2013-08-07 18:10:00,82.7,70.2,30.07,SSW,194,1.0,4.0,66,0.00,,---,0.00,VWS V14.01,2013-08-07 22:10:00,
2013-08-07 18:15:00,82.5,70.0,30.06,South,181,1.0,4.0,66,0.00,,---,0.00,VWS V14.01,2013-08-07 22:15:00,
2013-08-07 18:20:00,82.4,70.3,30.06,SSE,163,2.0,5.0,67,0.00,,---,0.00,VWS V14.01,2013-08-07 22:20:00,
2013-08-07 18:25:00,82.3,70.7,30.06,SW,220,2.0,8.0,68,0.00,,---,0.00,VWS V14.01,2013-08-07 22:25:00,
2013-08-07 18:30:00,82.4,70.8,30.06,SW,232,2.0,4.0,68,0.00,,---,0.00,VWS V14.01,2013-08-07 22:30:00,
2013-08-07 18:35:00,82.4,70.8,30.06,SSE,155,2.0,6.0,68,0.00,,---,0.00,VWS V14.01,2013-08-07 22:35:00,
2013-08-07 18:40:00,82.3,70.7,30.06,South,180,1.0,6.0,68,0.00,,---,0.00,VWS V14.01,2013-08-07 22:40:00,
2013-08-07 18:45:00,82.3,70.3,30.06,South,177,4.0,7.0,67,0.00,,---,0.00,VWS V14.01,2013-08-07 22:45:00,
2013-08-07 18:51:00,82.1,70.5,30.06,SSE,166,2.0,7.0,68,0.00,,---,0.00,VWS V14.01,2013-08-07 22:51:00,
2013-08-07 18:56:00,81.8,70.6,30.06,South,189,1.0,7.0,69,0.00,,---,0.00,VWS V14.01,2013-08-07 22:56:00,
2013-08-07 19:01:00,81.8,71.1,30.06,SSW,193,2.0,5.0,70,0.00,,---,0.00,VWS V14.01,2013-08-07 23:01:00,
2013-08-07 19:06:00,81.7,71.0,30.06,SSE,165,1.0,5.0,70,0.00,,---,0.00,VWS V14.01,2013-08-07 23:06:00,
2013-08-07 19:11:00,81.6,71.3,30.06,SSE,165,2.0,5.0,71,0.00,,---,0.00,VWS V14.01,2013-08-07 23:11:00,
2013-08-07 19:16:00,81.4,71.1,30.06,South,171,2.0,2.0,71,0.00,,---,0.00,VWS V14.01,2013-08-07 23:16:00,
2013-08-07 19:21:00,81.2,70.5,30.06,SSW,213,1.0,3.0,70,0.00,,---,0.00,VWS V14.01,2013-08-07 23:21:00,
2013-08-07 19:26:00,81.0,70.7,30.06,SSW,211,0.0,4.0,71,0.00,,---,0.00,VWS V14.01,2013-08-07 23:26:00,
2013-08-07 19:31:00,80.8,70.9,30.06,SSW,211,0.0,1.0,72,0.00,,---,0.00,VWS V14.01,2013-08-07 23:31:00,
2013-08-07 19:36:00,80.7,71.2,30.06,SSW,211,0.0,1.0,73,0.00,,---,0.00,VWS V14.01,2013-08-07 23:36:00,
2013-08-07 19:41:00,80.6,71.9,30.06,SSW,211,0.0,1.0,75,0.00,,---,0.00,VWS V14.01,2013-08-07 23:41:00,
2013-08-07 19:46:00,80.3,72.1,30.06,SSW,211,0.0,1.0,76,0.00,,---,0.00,VWS V14.01,2013-08-07 23:46:00,
2013-08-07 19:51:00,80.1,71.9,30.06,SSW,211,0.0,1.0,76,0.00,,---,0.00,VWS V14.01,2013-08-07 23:51:00,
2013-08-07 19:57:00,79.9,71.7,30.07,SSW,211,0.0,1.0,76,0.00,,---,0.00,VWS V14.01,2013-08-07 23:57:00,
2013-08-07 20:02:00,79.6,72.1,30.07,SSW,211,0.0,0.0,78,0.00,,---,0.00,VWS V14.01,2013-08-08 00:02:00,
2013-08-07 20:07:00,79.0,71.9,30.07,SSW,211,0.0,0.0,79,0.00,,---,0.00,VWS V14.01,2013-08-08 00:07:00,
2013-08-07 20:12:00,78.4,71.7,30.07,SSW,211,0.0,0.0,80,0.00,,---,0.00,VWS V14.01,2013-08-08 00:12:00,
2013-08-07 20:17:00,78.0,71.7,30.06,SSW,211,0.0,0.0,81,0.00,,---,0.00,VWS V14.01,2013-08-08 00:17:00,
2013-08-07 20:22:00,77.7,71.8,30.07,SSW,211,0.0,0.0,82,0.00,,---,0.00,VWS V14.01,2013-08-08 00:22:00,
2013-08-07 20:27:00,77.4,71.5,30.07,SSW,211,0.0,0.0,82,0.00,,---,0.00,VWS V14.01,2013-08-08 00:27:00,
2013-08-07 20:32:00,77.1,71.5,30.07,SSW,211,0.0,0.0,83,0.00,,---,0.00,VWS V14.01,2013-08-08 00:32:00,
2013-08-07 20:37:00,77.0,71.8,30.07,SSW,211,0.0,0.0,84,0.00,,---,0.00,VWS V14.01,2013-08-08 00:37:00,
2013-08-07 20:42:00,76.9,71.7,30.07,SSW,211,0.0,0.0,84,0.00,,---,0.00,VWS V14.01,2013-08-08 00:42:00,
2013-08-07 20:47:00,76.8,71.6,30.07,SSW,211,0.0,0.0,84,0.00,,---,0.00,VWS V14.01,2013-08-08 00:47:00,
2013-08-07 20:52:00,76.6,71.4,30.07,SSW,211,0.0,0.0,84,0.00,,---,0.00,VWS V14.01,2013-08-08 00:52:00,
2013-08-07 20:57:00,76.3,71.5,30.06,SSW,211,0.0,0.0,85,0.00,,---,0.00,VWS V14.01,2013-08-08 00:57:00,
2013-08-07 21:02:00,76.2,71.4,30.06,SSW,211,0.0,0.0,85,0.00,,---,0.00,VWS V14.01,2013-08-08 01:02:00,
2013-08-07 21:07:00,76.1,71.3,30.06,SSW,211,0.0,0.0,85,0.00,,---,0.00,VWS V14.01,2013-08-08 01:07:00,
2013-08-07 21:13:00,76.0,71.2,30.07,SSW,211,0.0,0.0,85,0.00,,---,0.00,VWS V14.01,2013-08-08 01:13:00,
2013-08-07 21:18:00,75.8,71.3,30.06,SSW,211,0.0,0.0,86,0.00,,---,0.00,VWS V14.01,2013-08-08 01:18:00,
2013-08-07 21:23:00,75.7,71.2,30.06,SSW,211,0.0,0.0,86,0.00,,---,0.00,VWS V14.01,2013-08-08 01:23:00,
2013-08-07 21:28:00,75.6,71.1,30.07,SSW,211,0.0,0.0,86,0.00,,---,0.00,VWS V14.01,2013-08-08 01:28:00,
2013-08-07 21:33:00,75.4,71.3,30.07,SSW,211,0.0,0.0,87,0.00,,---,0.00,VWS V14.01,2013-08-08 01:33:00,
2013-08-07 21:38:00,75.4,70.9,30.07,SSW,211,0.0,0.0,86,0.00,,---,0.00,VWS V14.01,2013-08-08 01:38:00,
2013-08-07 21:43:00,75.3,70.8,30.07,SSW,211,0.0,0.0,86,0.00,,---,0.00,VWS V14.01,2013-08-08 01:43:00,
2013-08-07 21:48:00,75.3,71.2,30.07,SSW,211,0.0,0.0,87,0.00,,---,0.00,VWS V14.01,2013-08-08 01:48:00,
2013-08-07 21:53:00,75.4,71.3,30.08,SSW,211,0.0,0.0,87,0.00,,---,0.00,VWS V14.01,2013-08-08 01:53:00,
2013-08-07 21:58:00,75.5,71.4,30.08,SSW,211,0.0,0.0,87,0.00,,---,0.00,VWS V14.01,2013-08-08 01:58:00,
2013-08-07 22:03:00,75.6,71.8,30.08,SSW,211,0.0,0.0,88,0.00,,---,0.00,VWS V14.01,2013-08-08 02:03:00,
2013-08-07 22:08:00,75.5,71.4,30.08,SSW,211,0.0,0.0,87,0.00,,---,0.00,VWS V14.01,2013-08-08 02:08:00,
2013-08-07 22:13:00,75.3,71.5,30.09,SSW,211,0.0,0.0,88,0.00,,---,0.00,VWS V14.01,2013-08-08 02:13:00,
2013-08-07 22:18:00,75.2,71.4,30.09,SSW,211,0.0,0.0,88,0.00,,---,0.00,VWS V14.01,2013-08-08 02:18:00,
2013-08-07 22:23:00,75.1,71.6,30.09,SSW,211,0.0,0.0,89,0.00,,---,0.00,VWS V14.01,2013-08-08 02:23:00,
2013-08-07 22:28:00,75.1,71.6,30.09,SSW,211,0.0,0.0,89,0.00,,---,0.00,VWS V14.01,2013-08-08 02:28:00,
2013-08-07 22:34:00,75.0,71.5,30.09,SSW,211,0.0,0.0,89,0.00,,---,0.00,VWS V14.01,2013-08-08 02:34:00,
2013-08-07 22:39:00,74.9,71.4,30.09,SSW,211,0.0,0.0,89,0.00,,---,0.00,VWS V14.01,2013-08-08 02:39:00,
2013-08-07 22:44:00,74.7,71.2,30.09,SSW,211,0.0,0.0,89,0.00,,---,0.00,VWS V14.01,2013-08-08 02:44:00,
2013-08-07 22:49:00,74.6,71.5,30.09,SSW,211,0.0,0.0,90,0.00,,---,0.00,VWS V14.01,2013-08-08 02:49:00,
2013-08-07 22:54:00,74.5,71.4,30.09,SE,133,0.0,0.0,90,0.00,,---,0.00,VWS V14.01,2013-08-08 02:54:00,
2013-08-07 22:59:00,74.6,71.5,30.09,SSE,147,0.0,0.0,90,0.00,,---,0.00,VWS V14.01,2013-08-08 02:59:00,
2013-08-07 23:04:00,74.8,71.3,30.09,SSE,147,0.0,0.0,89,0.00,,---,0.00,VWS V14.01,2013-08-08 03:04:00,
2013-08-07 23:09:00,74.9,71.4,30.09,SSE,147,0.0,0.0,89,0.00,,---,0.00,VWS V14.01,2013-08-08 03:09:00,
2013-08-07 23:14:00,75.0,71.5,30.09,SSE,148,0.0,0.0,89,0.00,,---,0.00,VWS V14.01,2013-08-08 03:14:00,
2013-08-07 23:19:00,74.9,71.4,30.09,SSE,148,0.0,0.0,89,0.00,,---,0.00,VWS V14.01,2013-08-08 03:19:00,
2013-08-07 23:24:00,74.8,71.3,30.08,SSE,147,0.0,0.0,89,0.00,,---,0.00,VWS V14.01,2013-08-08 03:24:00,
2013-08-07 23:29:00,74.8,71.3,30.08,SSE,147,0.0,0.0,89,0.00,,---,0.00,VWS V14.01,2013-08-08 03:29:00,
2013-08-07 23:34:00,74.8,71.3,30.09,SE,137,0.0,0.0,89,0.00,,---,0.00,VWS V14.01,2013-08-08 03:34:00,
2013-08-07 23:39:00,74.8,71.3,30.08,SE,137,0.0,0.0,89,0.00,,---,0.00,VWS V14.01,2013-08-08 03:39:00,
2013-08-07 23:44:00,74.8,71.0,30.09,SE,144,0.0,0.0,88,0.00,,---,0.00,VWS V14.01,2013-08-08 03:44:00,
2013-08-07 23:49:00,74.9,70.8,30.09,South,173,0.0,0.0,87,0.00,,---,0.00,VWS V14.01,2013-08-08 03:49:00,
2013-08-07 23:54:00,75.0,70.5,30.08,SSE,156,0.0,4.0,86,0.00,,---,0.00,VWS V14.01,2013-08-08 03:54:00,